sensor_id;sensor_type;location;lat;lon;timestamp;P1;durP1;ratioP1;P2;durP2;ratioP2
10303;SDS011;5197;48.152;8.590;2023-05-10T00:00:29;0.20;;;0.20;;
10303;SDS011;5197;48.152;8.590;2023-05-10T00:02:56;0.07;;;0.07;;
10303;SDS011;5197;48.152;8.590;2023-05-10T00:05:23;1.47;;;0.30;;
10303;SDS011;5197;48.152;8.590;2023-05-10T00:07:50;0.30;;;0.20;;
10303;SDS011;5197;48.152;8.590;2023-05-10T00:10:17;0.40;;;0.40;;
10303;SDS011;5197;48.152;8.590;2023-05-10T00:12:44;0.13;;;0.13;;
10303;SDS011;5197;48.152;8.590;2023-05-10T00:15:12;0.20;;;0.20;;
10303;SDS011;5197;48.152;8.590;2023-05-10T00:17:39;0.10;;;0.10;;
10303;SDS011;5197;48.152;8.590;2023-05-10T00:20:06;0.17;;;0.17;;
10303;SDS011;5197;48.152;8.590;2023-05-10T00:22:34;0.20;;;0.20;;
10303;SDS011;5197;48.152;8.590;2023-05-10T00:25:01;0.20;;;0.20;;
10303;SDS011;5197;48.152;8.590;2023-05-10T00:27:28;0.30;;;0.10;;
10303;SDS011;5197;48.152;8.590;2023-05-10T00:29:54;0.20;;;0.20;;
10303;SDS011;5197;48.152;8.590;2023-05-10T00:32:21;0.67;;;0.30;;
10303;SDS011;5197;48.152;8.590;2023-05-10T00:34:48;0.20;;;0.20;;
10303;SDS011;5197;48.152;8.590;2023-05-10T00:37:15;2.17;;;0.20;;
10303;SDS011;5197;48.152;8.590;2023-05-10T00:39:42;0.10;;;0.10;;
10303;SDS011;5197;48.152;8.590;2023-05-10T00:42:09;0.20;;;0.20;;
10303;SDS011;5197;48.152;8.590;2023-05-10T00:44:36;0.10;;;0.10;;
10303;SDS011;5197;48.152;8.590;2023-05-10T00:47:03;0.37;;;0.33;;
10303;SDS011;5197;48.152;8.590;2023-05-10T00:49:30;1.70;;;0.30;;
10303;SDS011;5197;48.152;8.590;2023-05-10T00:51:57;0.63;;;0.40;;
10303;SDS011;5197;48.152;8.590;2023-05-10T00:54:24;0.27;;;0.27;;
10303;SDS011;5197;48.152;8.590;2023-05-10T00:56:51;0.33;;;0.33;;
10303;SDS011;5197;48.152;8.590;2023-05-10T00:59:18;0.10;;;0.10;;
10303;SDS011;5197;48.152;8.590;2023-05-10T01:01:46;0.10;;;0.10;;
10303;SDS011;5197;48.152;8.590;2023-05-10T01:04:14;0.20;;;0.20;;
10303;SDS011;5197;48.152;8.590;2023-05-10T01:06:41;0.53;;;0.20;;
10303;SDS011;5197;48.152;8.590;2023-05-10T01:09:09;0.30;;;0.20;;
10303;SDS011;5197;48.152;8.590;2023-05-10T01:11:38;1.33;;;0.30;;
10303;SDS011;5197;48.152;8.590;2023-05-10T01:14:06;1.60;;;0.20;;
10303;SDS011;5197;48.152;8.590;2023-05-10T01:16:34;0.20;;;0.20;;
10303;SDS011;5197;48.152;8.590;2023-05-10T01:19:26;0.20;;;0.20;;
10303;SDS011;5197;48.152;8.590;2023-05-10T01:21:56;0.30;;;0.30;;
10303;SDS011;5197;48.152;8.590;2023-05-10T01:30:01;0.33;;;0.33;;
10303;SDS011;5197;48.152;8.590;2023-05-10T01:33:19;0.37;;;0.37;;
10303;SDS011;5197;48.152;8.590;2023-05-10T01:36:05;0.60;;;0.40;;
10303;SDS011;5197;48.152;8.590;2023-05-10T01:39:05;1.30;;;0.40;;
10303;SDS011;5197;48.152;8.590;2023-05-10T01:41:49;4.23;;;0.50;;
10303;SDS011;5197;48.152;8.590;2023-05-10T01:44:24;0.67;;;0.30;;
10303;SDS011;5197;48.152;8.590;2023-05-10T01:47:03;0.40;;;0.30;;
10303;SDS011;5197;48.152;8.590;2023-05-10T01:49:53;0.77;;;0.40;;
10303;SDS011;5197;48.152;8.590;2023-05-10T01:52:30;0.30;;;0.30;;
10303;SDS011;5197;48.152;8.590;2023-05-10T01:55:07;0.60;;;0.60;;
10303;SDS011;5197;48.152;8.590;2023-05-10T01:57:37;0.20;;;0.20;;
10303;SDS011;5197;48.152;8.590;2023-05-10T02:00:08;3.20;;;0.33;;
10303;SDS011;5197;48.152;8.590;2023-05-10T02:02:37;0.37;;;0.37;;
10303;SDS011;5197;48.152;8.590;2023-05-10T02:05:06;0.30;;;0.30;;
10303;SDS011;5197;48.152;8.590;2023-05-10T02:07:34;0.30;;;0.30;;
10303;SDS011;5197;48.152;8.590;2023-05-10T02:10:06;1.53;;;0.60;;
10303;SDS011;5197;48.152;8.590;2023-05-10T02:12:36;0.30;;;0.30;;
10303;SDS011;5197;48.152;8.590;2023-05-10T02:15:07;0.37;;;0.30;;
10303;SDS011;5197;48.152;8.590;2023-05-10T02:17:37;0.57;;;0.30;;
10303;SDS011;5197;48.152;8.590;2023-05-10T02:20:05;0.63;;;0.50;;
10303;SDS011;5197;48.152;8.590;2023-05-10T02:22:34;1.87;;;0.70;;
10303;SDS011;5197;48.152;8.590;2023-05-10T02:25:02;0.40;;;0.40;;
10303;SDS011;5197;48.152;8.590;2023-05-10T02:27:30;0.50;;;0.50;;
10303;SDS011;5197;48.152;8.590;2023-05-10T02:29:58;0.50;;;0.50;;
10303;SDS011;5197;48.152;8.590;2023-05-10T02:32:26;4.13;;;0.50;;
10303;SDS011;5197;48.152;8.590;2023-05-10T02:34:54;1.20;;;0.60;;
10303;SDS011;5197;48.152;8.590;2023-05-10T02:37:22;0.47;;;0.47;;
10303;SDS011;5197;48.152;8.590;2023-05-10T02:39:50;0.60;;;0.60;;
10303;SDS011;5197;48.152;8.590;2023-05-10T02:42:22;1.30;;;0.53;;
10303;SDS011;5197;48.152;8.590;2023-05-10T02:44:53;0.40;;;0.40;;
10303;SDS011;5197;48.152;8.590;2023-05-10T02:47:22;1.07;;;0.60;;
10303;SDS011;5197;48.152;8.590;2023-05-10T02:49:49;1.47;;;0.77;;
10303;SDS011;5197;48.152;8.590;2023-05-10T02:52:19;0.40;;;0.40;;
10303;SDS011;5197;48.152;8.590;2023-05-10T02:54:52;1.30;;;0.90;;
10303;SDS011;5197;48.152;8.590;2023-05-10T02:57:24;3.60;;;0.90;;
10303;SDS011;5197;48.152;8.590;2023-05-10T02:59:54;1.03;;;1.00;;
10303;SDS011;5197;48.152;8.590;2023-05-10T03:02:21;1.07;;;0.80;;
10303;SDS011;5197;48.152;8.590;2023-05-10T03:04:48;0.90;;;0.90;;
10303;SDS011;5197;48.152;8.590;2023-05-10T03:07:15;0.60;;;0.60;;
10303;SDS011;5197;48.152;8.590;2023-05-10T03:09:45;0.70;;;0.70;;
10303;SDS011;5197;48.152;8.590;2023-05-10T03:12:19;4.33;;;0.93;;
10303;SDS011;5197;48.152;8.590;2023-05-10T03:15:13;2.90;;;0.90;;
10303;SDS011;5197;48.152;8.590;2023-05-10T03:18:22;2.73;;;0.80;;
10303;SDS011;5197;48.152;8.590;2023-05-10T03:20:49;1.10;;;0.97;;
10303;SDS011;5197;48.152;8.590;2023-05-10T03:23:22;0.97;;;0.87;;
10303;SDS011;5197;48.152;8.590;2023-05-10T03:26:00;0.80;;;0.80;;
10303;SDS011;5197;48.152;8.590;2023-05-10T03:28:29;0.87;;;0.87;;
10303;SDS011;5197;48.152;8.590;2023-05-10T03:30:57;0.80;;;0.60;;
10303;SDS011;5197;48.152;8.590;2023-05-10T03:33:26;1.37;;;0.57;;
10303;SDS011;5197;48.152;8.590;2023-05-10T03:35:53;0.90;;;0.90;;
10303;SDS011;5197;48.152;8.590;2023-05-10T03:38:20;0.70;;;0.70;;
10303;SDS011;5197;48.152;8.590;2023-05-10T03:40:47;2.10;;;0.70;;
10303;SDS011;5197;48.152;8.590;2023-05-10T03:43:14;2.43;;;0.80;;
10303;SDS011;5197;48.152;8.590;2023-05-10T03:45:41;1.77;;;0.90;;
10303;SDS011;5197;48.152;8.590;2023-05-10T03:48:08;5.23;;;1.10;;
10303;SDS011;5197;48.152;8.590;2023-05-10T03:50:35;3.87;;;1.00;;
10303;SDS011;5197;48.152;8.590;2023-05-10T03:53:02;2.23;;;0.93;;
10303;SDS011;5197;48.152;8.590;2023-05-10T03:55:47;2.80;;;0.87;;
10303;SDS011;5197;48.152;8.590;2023-05-10T03:58:35;0.90;;;0.90;;
10303;SDS011;5197;48.152;8.590;2023-05-10T04:01:22;1.03;;;0.70;;
10303;SDS011;5197;48.152;8.590;2023-05-10T04:04:04;3.87;;;1.07;;
10303;SDS011;5197;48.152;8.590;2023-05-10T04:06:31;1.90;;;0.50;;
10303;SDS011;5197;48.152;8.590;2023-05-10T04:08:58;1.43;;;0.67;;
10303;SDS011;5197;48.152;8.590;2023-05-10T04:11:26;1.50;;;0.97;;
10303;SDS011;5197;48.152;8.590;2023-05-10T04:13:54;0.80;;;0.77;;
10303;SDS011;5197;48.152;8.590;2023-05-10T04:16:21;0.80;;;0.80;;
10303;SDS011;5197;48.152;8.590;2023-05-10T04:18:48;1.40;;;0.83;;
10303;SDS011;5197;48.152;8.590;2023-05-10T04:21:15;0.77;;;0.77;;
10303;SDS011;5197;48.152;8.590;2023-05-10T04:23:42;1.80;;;1.00;;
10303;SDS011;5197;48.152;8.590;2023-05-10T04:26:09;1.93;;;0.87;;
10303;SDS011;5197;48.152;8.590;2023-05-10T04:28:36;0.80;;;0.80;;
10303;SDS011;5197;48.152;8.590;2023-05-10T04:31:06;2.27;;;1.00;;
10303;SDS011;5197;48.152;8.590;2023-05-10T04:33:35;0.67;;;0.57;;
10303;SDS011;5197;48.152;8.590;2023-05-10T04:36:02;0.73;;;0.73;;
10303;SDS011;5197;48.152;8.590;2023-05-10T04:38:30;0.50;;;0.50;;
10303;SDS011;5197;48.152;8.590;2023-05-10T04:41:07;0.63;;;0.63;;
10303;SDS011;5197;48.152;8.590;2023-05-10T04:43:35;1.20;;;1.10;;
10303;SDS011;5197;48.152;8.590;2023-05-10T04:46:02;0.50;;;0.50;;
10303;SDS011;5197;48.152;8.590;2023-05-10T04:48:30;1.27;;;0.63;;
10303;SDS011;5197;48.152;8.590;2023-05-10T04:50:57;0.80;;;0.80;;
10303;SDS011;5197;48.152;8.590;2023-05-10T04:53:24;1.17;;;0.87;;
10303;SDS011;5197;48.152;8.590;2023-05-10T04:55:51;0.83;;;0.83;;
10303;SDS011;5197;48.152;8.590;2023-05-10T04:58:18;0.80;;;0.80;;
10303;SDS011;5197;48.152;8.590;2023-05-10T05:00:45;0.70;;;0.70;;
10303;SDS011;5197;48.152;8.590;2023-05-10T05:03:12;1.57;;;1.07;;
10303;SDS011;5197;48.152;8.590;2023-05-10T05:05:39;0.97;;;0.97;;
10303;SDS011;5197;48.152;8.590;2023-05-10T05:08:06;1.67;;;1.10;;
10303;SDS011;5197;48.152;8.590;2023-05-10T05:10:33;1.30;;;1.30;;
10303;SDS011;5197;48.152;8.590;2023-05-10T05:13:00;1.47;;;1.37;;
10303;SDS011;5197;48.152;8.590;2023-05-10T05:15:27;2.17;;;1.33;;
10303;SDS011;5197;48.152;8.590;2023-05-10T05:17:54;1.30;;;1.20;;
10303;SDS011;5197;48.152;8.590;2023-05-10T05:20:21;1.00;;;0.97;;
10303;SDS011;5197;48.152;8.590;2023-05-10T05:22:48;1.73;;;1.07;;
10303;SDS011;5197;48.152;8.590;2023-05-10T05:25:15;2.43;;;0.80;;
10303;SDS011;5197;48.152;8.590;2023-05-10T05:27:42;1.97;;;1.07;;
10303;SDS011;5197;48.152;8.590;2023-05-10T05:30:09;0.87;;;0.80;;
10303;SDS011;5197;48.152;8.590;2023-05-10T05:32:37;0.87;;;0.80;;
10303;SDS011;5197;48.152;8.590;2023-05-10T05:35:04;1.27;;;0.90;;
10303;SDS011;5197;48.152;8.590;2023-05-10T05:37:32;1.20;;;0.90;;
10303;SDS011;5197;48.152;8.590;2023-05-10T05:39:59;0.70;;;0.70;;
10303;SDS011;5197;48.152;8.590;2023-05-10T05:42:28;1.37;;;0.80;;
10303;SDS011;5197;48.152;8.590;2023-05-10T05:44:55;1.03;;;0.80;;
10303;SDS011;5197;48.152;8.590;2023-05-10T05:47:24;7.63;;;1.50;;
10303;SDS011;5197;48.152;8.590;2023-05-10T05:49:51;1.63;;;1.53;;
10303;SDS011;5197;48.152;8.590;2023-05-10T05:52:19;1.80;;;1.50;;
10303;SDS011;5197;48.152;8.590;2023-05-10T05:54:46;0.93;;;0.90;;
10303;SDS011;5197;48.152;8.590;2023-05-10T05:57:13;3.00;;;1.00;;
10303;SDS011;5197;48.152;8.590;2023-05-10T05:59:40;1.77;;;1.00;;
10303;SDS011;5197;48.152;8.590;2023-05-10T06:02:10;3.23;;;1.00;;
10303;SDS011;5197;48.152;8.590;2023-05-10T06:04:37;1.00;;;1.00;;
10303;SDS011;5197;48.152;8.590;2023-05-10T06:07:04;0.73;;;0.73;;
10303;SDS011;5197;48.152;8.590;2023-05-10T06:09:31;1.40;;;1.00;;
10303;SDS011;5197;48.152;8.590;2023-05-10T06:11:58;0.90;;;0.90;;
10303;SDS011;5197;48.152;8.590;2023-05-10T06:14:25;0.83;;;0.83;;
10303;SDS011;5197;48.152;8.590;2023-05-10T06:16:52;1.77;;;0.80;;
10303;SDS011;5197;48.152;8.590;2023-05-10T06:19:19;0.93;;;0.60;;
10303;SDS011;5197;48.152;8.590;2023-05-10T06:21:46;1.20;;;1.20;;
10303;SDS011;5197;48.152;8.590;2023-05-10T06:24:13;0.97;;;0.90;;
10303;SDS011;5197;48.152;8.590;2023-05-10T06:26:40;0.60;;;0.60;;
10303;SDS011;5197;48.152;8.590;2023-05-10T06:29:07;1.07;;;1.00;;
10303;SDS011;5197;48.152;8.590;2023-05-10T06:31:34;0.87;;;0.87;;
10303;SDS011;5197;48.152;8.590;2023-05-10T06:34:01;1.20;;;1.20;;
10303;SDS011;5197;48.152;8.590;2023-05-10T06:36:28;1.40;;;1.30;;
10303;SDS011;5197;48.152;8.590;2023-05-10T06:38:55;1.20;;;1.20;;
10303;SDS011;5197;48.152;8.590;2023-05-10T06:41:22;1.37;;;1.33;;
10303;SDS011;5197;48.152;8.590;2023-05-10T06:43:51;1.40;;;1.10;;
10303;SDS011;5197;48.152;8.590;2023-05-10T06:46:18;2.13;;;1.40;;
10303;SDS011;5197;48.152;8.590;2023-05-10T06:48:45;0.93;;;0.93;;
10303;SDS011;5197;48.152;8.590;2023-05-10T06:51:12;1.10;;;1.10;;
10303;SDS011;5197;48.152;8.590;2023-05-10T06:53:39;1.00;;;1.00;;
10303;SDS011;5197;48.152;8.590;2023-05-10T06:56:06;2.20;;;1.13;;
10303;SDS011;5197;48.152;8.590;2023-05-10T06:58:33;0.80;;;0.80;;
10303;SDS011;5197;48.152;8.590;2023-05-10T07:01:03;1.17;;;0.80;;
10303;SDS011;5197;48.152;8.590;2023-05-10T07:03:31;1.33;;;0.90;;
10303;SDS011;5197;48.152;8.590;2023-05-10T07:06:02;0.90;;;0.90;;
10303;SDS011;5197;48.152;8.590;2023-05-10T07:08:31;0.70;;;0.67;;
10303;SDS011;5197;48.152;8.590;2023-05-10T07:11:02;1.10;;;0.83;;
10303;SDS011;5197;48.152;8.590;2023-05-10T07:13:30;1.20;;;0.50;;
10303;SDS011;5197;48.152;8.590;2023-05-10T07:15:58;0.83;;;0.60;;
10303;SDS011;5197;48.152;8.590;2023-05-10T07:18:27;0.50;;;0.40;;
10303;SDS011;5197;48.152;8.590;2023-05-10T07:20:54;0.50;;;0.50;;
10303;SDS011;5197;48.152;8.590;2023-05-10T07:23:22;0.97;;;0.40;;
10303;SDS011;5197;48.152;8.590;2023-05-10T07:25:50;0.97;;;0.70;;
10303;SDS011;5197;48.152;8.590;2023-05-10T07:28:18;2.07;;;0.67;;
10303;SDS011;5197;48.152;8.590;2023-05-10T07:30:46;0.80;;;0.80;;
10303;SDS011;5197;48.152;8.590;2023-05-10T07:33:13;0.70;;;0.70;;
10303;SDS011;5197;48.152;8.590;2023-05-10T07:35:41;3.23;;;0.80;;
10303;SDS011;5197;48.152;8.590;2023-05-10T07:38:09;0.50;;;0.50;;
10303;SDS011;5197;48.152;8.590;2023-05-10T07:40:38;0.50;;;0.50;;
10303;SDS011;5197;48.152;8.590;2023-05-10T07:43:05;1.07;;;0.67;;
10303;SDS011;5197;48.152;8.590;2023-05-10T07:45:33;0.77;;;0.60;;
10303;SDS011;5197;48.152;8.590;2023-05-10T07:48:00;2.00;;;0.80;;
10303;SDS011;5197;48.152;8.590;2023-05-10T07:50:27;0.60;;;0.60;;
10303;SDS011;5197;48.152;8.590;2023-05-10T07:52:55;1.70;;;0.63;;
10303;SDS011;5197;48.152;8.590;2023-05-10T07:55:22;1.60;;;0.60;;
10303;SDS011;5197;48.152;8.590;2023-05-10T07:57:49;0.60;;;0.60;;
10303;SDS011;5197;48.152;8.590;2023-05-10T08:00:17;1.33;;;0.73;;
10303;SDS011;5197;48.152;8.590;2023-05-10T08:02:46;0.73;;;0.47;;
10303;SDS011;5197;48.152;8.590;2023-05-10T08:05:13;0.77;;;0.77;;
10303;SDS011;5197;48.152;8.590;2023-05-10T08:07:41;0.50;;;0.47;;
10303;SDS011;5197;48.152;8.590;2023-05-10T08:10:09;0.40;;;0.40;;
10303;SDS011;5197;48.152;8.590;2023-05-10T08:12:37;1.57;;;0.57;;
10303;SDS011;5197;48.152;8.590;2023-05-10T08:15:04;0.57;;;0.47;;
10303;SDS011;5197;48.152;8.590;2023-05-10T08:17:32;3.20;;;0.87;;
10303;SDS011;5197;48.152;8.590;2023-05-10T08:19:59;1.47;;;0.80;;
10303;SDS011;5197;48.152;8.590;2023-05-10T08:22:27;0.80;;;0.47;;
10303;SDS011;5197;48.152;8.590;2023-05-10T08:24:54;0.40;;;0.40;;
10303;SDS011;5197;48.152;8.590;2023-05-10T08:27:21;0.67;;;0.67;;
10303;SDS011;5197;48.152;8.590;2023-05-10T08:29:48;0.87;;;0.50;;
10303;SDS011;5197;48.152;8.590;2023-05-10T08:32:16;0.60;;;0.60;;
10303;SDS011;5197;48.152;8.590;2023-05-10T08:34:43;0.40;;;0.40;;
10303;SDS011;5197;48.152;8.590;2023-05-10T08:37:10;0.20;;;0.20;;
10303;SDS011;5197;48.152;8.590;2023-05-10T08:39:40;0.50;;;0.50;;
10303;SDS011;5197;48.152;8.590;2023-05-10T08:42:07;0.90;;;0.50;;
10303;SDS011;5197;48.152;8.590;2023-05-10T08:44:35;0.27;;;0.20;;
10303;SDS011;5197;48.152;8.590;2023-05-10T08:47:06;2.53;;;0.43;;
10303;SDS011;5197;48.152;8.590;2023-05-10T08:49:35;0.23;;;0.23;;
10303;SDS011;5197;48.152;8.590;2023-05-10T08:52:04;1.27;;;0.30;;
10303;SDS011;5197;48.152;8.590;2023-05-10T08:54:34;1.27;;;0.50;;
10303;SDS011;5197;48.152;8.590;2023-05-10T08:57:01;0.43;;;0.43;;
10303;SDS011;5197;48.152;8.590;2023-05-10T08:59:28;0.40;;;0.30;;
10303;SDS011;5197;48.152;8.590;2023-05-10T09:01:57;0.30;;;0.30;;
10303;SDS011;5197;48.152;8.590;2023-05-10T09:04:25;0.40;;;0.40;;
10303;SDS011;5197;48.152;8.590;2023-05-10T09:06:53;1.10;;;0.40;;
10303;SDS011;5197;48.152;8.590;2023-05-10T09:09:20;1.33;;;0.47;;
10303;SDS011;5197;48.152;8.590;2023-05-10T09:11:48;0.40;;;0.40;;
10303;SDS011;5197;48.152;8.590;2023-05-10T09:14:15;1.37;;;0.40;;
10303;SDS011;5197;48.152;8.590;2023-05-10T09:16:43;0.30;;;0.27;;
10303;SDS011;5197;48.152;8.590;2023-05-10T09:19:10;0.70;;;0.70;;
10303;SDS011;5197;48.152;8.590;2023-05-10T09:21:38;0.40;;;0.40;;
10303;SDS011;5197;48.152;8.590;2023-05-10T09:24:05;2.00;;;0.40;;
10303;SDS011;5197;48.152;8.590;2023-05-10T09:26:34;1.40;;;1.23;;
10303;SDS011;5197;48.152;8.590;2023-05-10T09:29:02;0.77;;;0.60;;
10303;SDS011;5197;48.152;8.590;2023-05-10T09:31:46;0.60;;;0.60;;
10303;SDS011;5197;48.152;8.590;2023-05-10T09:34:18;1.07;;;0.70;;
10303;SDS011;5197;48.152;8.590;2023-05-10T09:36:52;0.83;;;0.77;;
10303;SDS011;5197;48.152;8.590;2023-05-10T09:39:21;0.63;;;0.63;;
10303;SDS011;5197;48.152;8.590;2023-05-10T09:42:01;0.60;;;0.60;;
10303;SDS011;5197;48.152;8.590;2023-05-10T09:44:33;3.37;;;0.70;;
10303;SDS011;5197;48.152;8.590;2023-05-10T09:47:00;1.23;;;0.50;;
10303;SDS011;5197;48.152;8.590;2023-05-10T09:49:28;0.40;;;0.40;;
10303;SDS011;5197;48.152;8.590;2023-05-10T09:52:08;1.60;;;0.80;;
10303;SDS011;5197;48.152;8.590;2023-05-10T09:54:35;0.50;;;0.50;;
10303;SDS011;5197;48.152;8.590;2023-05-10T09:57:02;1.43;;;0.60;;
10303;SDS011;5197;48.152;8.590;2023-05-10T09:59:29;0.13;;;0.13;;
10303;SDS011;5197;48.152;8.590;2023-05-10T10:01:59;0.50;;;0.50;;
10303;SDS011;5197;48.152;8.590;2023-05-10T10:04:27;1.20;;;0.70;;
10303;SDS011;5197;48.152;8.590;2023-05-10T10:06:58;1.00;;;0.73;;
10303;SDS011;5197;48.152;8.590;2023-05-10T10:09:27;0.57;;;0.57;;
10303;SDS011;5197;48.152;8.590;2023-05-10T10:11:55;2.53;;;0.67;;
10303;SDS011;5197;48.152;8.590;2023-05-10T10:14:23;0.73;;;0.73;;
10303;SDS011;5197;48.152;8.590;2023-05-10T10:16:50;1.53;;;0.50;;
10303;SDS011;5197;48.152;8.590;2023-05-10T10:19:33;1.60;;;0.57;;
10303;SDS011;5197;48.152;8.590;2023-05-10T10:22:04;0.83;;;0.70;;
10303;SDS011;5197;48.152;8.590;2023-05-10T10:24:32;0.63;;;0.50;;
10303;SDS011;5197;48.152;8.590;2023-05-10T10:27:02;1.50;;;0.67;;
10303;SDS011;5197;48.152;8.590;2023-05-10T10:29:47;3.13;;;1.00;;
10303;SDS011;5197;48.152;8.590;2023-05-10T10:32:25;0.90;;;0.90;;
10303;SDS011;5197;48.152;8.590;2023-05-10T10:35:03;0.50;;;0.50;;
10303;SDS011;5197;48.152;8.590;2023-05-10T10:37:47;0.63;;;0.63;;
10303;SDS011;5197;48.152;8.590;2023-05-10T10:40:23;0.60;;;0.60;;
10303;SDS011;5197;48.152;8.590;2023-05-10T10:42:53;1.30;;;0.30;;
10303;SDS011;5197;48.152;8.590;2023-05-10T10:45:22;0.30;;;0.30;;
10303;SDS011;5197;48.152;8.590;2023-05-10T10:47:53;1.90;;;0.50;;
10303;SDS011;5197;48.152;8.590;2023-05-10T10:50:46;0.50;;;0.50;;
10303;SDS011;5197;48.152;8.590;2023-05-10T10:53:13;1.67;;;0.43;;
10303;SDS011;5197;48.152;8.590;2023-05-10T10:55:47;0.50;;;0.50;;
10303;SDS011;5197;48.152;8.590;2023-05-10T10:58:30;0.43;;;0.43;;
10303;SDS011;5197;48.152;8.590;2023-05-10T11:01:10;0.53;;;0.50;;
10303;SDS011;5197;48.152;8.590;2023-05-10T11:03:54;0.77;;;0.60;;
10303;SDS011;5197;48.152;8.590;2023-05-10T11:06:29;0.50;;;0.50;;
10303;SDS011;5197;48.152;8.590;2023-05-10T11:09:10;0.83;;;0.30;;
10303;SDS011;5197;48.152;8.590;2023-05-10T11:11:48;0.60;;;0.60;;
10303;SDS011;5197;48.152;8.590;2023-05-10T11:14:19;0.60;;;0.60;;
10303;SDS011;5197;48.152;8.590;2023-05-10T11:16:48;0.67;;;0.67;;
10303;SDS011;5197;48.152;8.590;2023-05-10T11:19:16;0.60;;;0.60;;
10303;SDS011;5197;48.152;8.590;2023-05-10T11:21:49;0.77;;;0.50;;
10303;SDS011;5197;48.152;8.590;2023-05-10T11:24:22;1.07;;;0.80;;
10303;SDS011;5197;48.152;8.590;2023-05-10T11:26:53;1.10;;;0.67;;
10303;SDS011;5197;48.152;8.590;2023-05-10T11:29:20;0.50;;;0.50;;
10303;SDS011;5197;48.152;8.590;2023-05-10T11:31:48;0.50;;;0.50;;
10303;SDS011;5197;48.152;8.590;2023-05-10T11:34:26;3.27;;;0.73;;
10303;SDS011;5197;48.152;8.590;2023-05-10T11:36:57;1.60;;;0.70;;
10303;SDS011;5197;48.152;8.590;2023-05-10T11:39:28;3.60;;;0.80;;
10303;SDS011;5197;48.152;8.590;2023-05-10T11:41:59;1.47;;;0.50;;
10303;SDS011;5197;48.152;8.590;2023-05-10T11:44:30;5.70;;;1.00;;
10303;SDS011;5197;48.152;8.590;2023-05-10T11:47:01;0.60;;;0.50;;
10303;SDS011;5197;48.152;8.590;2023-05-10T11:49:28;1.13;;;0.70;;
10303;SDS011;5197;48.152;8.590;2023-05-10T11:52:08;2.93;;;1.07;;
10303;SDS011;5197;48.152;8.590;2023-05-10T11:54:37;1.50;;;0.77;;
10303;SDS011;5197;48.152;8.590;2023-05-10T11:57:04;4.37;;;0.70;;
10303;SDS011;5197;48.152;8.590;2023-05-10T11:59:31;0.37;;;0.37;;
10303;SDS011;5197;48.152;8.590;2023-05-10T12:01:58;2.63;;;0.90;;
10303;SDS011;5197;48.152;8.590;2023-05-10T12:04:25;1.13;;;0.90;;
10303;SDS011;5197;48.152;8.590;2023-05-10T12:06:56;2.07;;;1.30;;
10303;SDS011;5197;48.152;8.590;2023-05-10T12:09:23;1.97;;;0.97;;
10303;SDS011;5197;48.152;8.590;2023-05-10T12:12:05;1.43;;;1.00;;
10303;SDS011;5197;48.152;8.590;2023-05-10T12:14:34;2.00;;;1.00;;
10303;SDS011;5197;48.152;8.590;2023-05-10T12:17:02;2.73;;;1.00;;
10303;SDS011;5197;48.152;8.590;2023-05-10T12:19:36;1.53;;;0.90;;
10303;SDS011;5197;48.152;8.590;2023-05-10T12:22:07;1.70;;;0.90;;
10303;SDS011;5197;48.152;8.590;2023-05-10T12:24:37;0.87;;;0.83;;
10303;SDS011;5197;48.152;8.590;2023-05-10T12:27:09;0.80;;;0.80;;
10303;SDS011;5197;48.152;8.590;2023-05-10T12:29:41;1.00;;;0.90;;
10303;SDS011;5197;48.152;8.590;2023-05-10T12:32:10;2.40;;;0.80;;
10303;SDS011;5197;48.152;8.590;2023-05-10T12:34:37;2.40;;;0.90;;
10303;SDS011;5197;48.152;8.590;2023-05-10T12:37:05;2.27;;;0.90;;
10303;SDS011;5197;48.152;8.590;2023-05-10T12:39:40;2.83;;;1.37;;
10303;SDS011;5197;48.152;8.590;2023-05-10T12:42:08;1.23;;;0.70;;
10303;SDS011;5197;48.152;8.590;2023-05-10T12:44:36;5.27;;;1.00;;
10303;SDS011;5197;48.152;8.590;2023-05-10T12:47:03;2.70;;;0.60;;
10303;SDS011;5197;48.152;8.590;2023-05-10T12:49:30;3.60;;;0.83;;
10303;SDS011;5197;48.152;8.590;2023-05-10T12:51:57;1.57;;;0.80;;
10303;SDS011;5197;48.152;8.590;2023-05-10T12:54:24;1.37;;;0.80;;
10303;SDS011;5197;48.152;8.590;2023-05-10T12:56:52;1.70;;;0.87;;
10303;SDS011;5197;48.152;8.590;2023-05-10T12:59:19;1.60;;;0.77;;
10303;SDS011;5197;48.152;8.590;2023-05-10T13:01:46;1.03;;;0.70;;
10303;SDS011;5197;48.152;8.590;2023-05-10T13:04:13;1.33;;;0.83;;
10303;SDS011;5197;48.152;8.590;2023-05-10T13:06:40;2.20;;;0.70;;
10303;SDS011;5197;48.152;8.590;2023-05-10T13:09:07;1.23;;;0.83;;
10303;SDS011;5197;48.152;8.590;2023-05-10T13:11:34;0.83;;;0.73;;
10303;SDS011;5197;48.152;8.590;2023-05-10T13:14:01;1.63;;;1.07;;
10303;SDS011;5197;48.152;8.590;2023-05-10T13:16:29;4.03;;;0.90;;
10303;SDS011;5197;48.152;8.590;2023-05-10T13:18:56;0.97;;;0.97;;
10303;SDS011;5197;48.152;8.590;2023-05-10T13:21:24;2.70;;;0.70;;
10303;SDS011;5197;48.152;8.590;2023-05-10T13:23:52;1.50;;;0.60;;
10303;SDS011;5197;48.152;8.590;2023-05-10T13:26:19;0.87;;;0.70;;
10303;SDS011;5197;48.152;8.590;2023-05-10T13:28:46;2.53;;;0.80;;
10303;SDS011;5197;48.152;8.590;2023-05-10T13:31:15;3.23;;;0.83;;
10303;SDS011;5197;48.152;8.590;2023-05-10T13:33:42;0.53;;;0.53;;
10303;SDS011;5197;48.152;8.590;2023-05-10T13:36:09;4.10;;;0.90;;
10303;SDS011;5197;48.152;8.590;2023-05-10T13:38:36;3.10;;;1.00;;
10303;SDS011;5197;48.152;8.590;2023-05-10T13:41:04;2.43;;;1.00;;
10303;SDS011;5197;48.152;8.590;2023-05-10T13:43:31;1.23;;;0.83;;
10303;SDS011;5197;48.152;8.590;2023-05-10T13:45:58;2.60;;;1.00;;
10303;SDS011;5197;48.152;8.590;2023-05-10T13:48:25;1.13;;;0.70;;
10303;SDS011;5197;48.152;8.590;2023-05-10T13:50:52;1.97;;;0.77;;
10303;SDS011;5197;48.152;8.590;2023-05-10T13:53:19;1.73;;;1.10;;
10303;SDS011;5197;48.152;8.590;2023-05-10T13:55:47;0.70;;;0.70;;
10303;SDS011;5197;48.152;8.590;2023-05-10T13:58:14;1.37;;;0.80;;
10303;SDS011;5197;48.152;8.590;2023-05-10T14:00:41;3.27;;;0.70;;
10303;SDS011;5197;48.152;8.590;2023-05-10T14:03:08;4.53;;;0.90;;
10303;SDS011;5197;48.152;8.590;2023-05-10T14:05:37;1.03;;;0.67;;
10303;SDS011;5197;48.152;8.590;2023-05-10T14:08:05;3.13;;;0.80;;
10303;SDS011;5197;48.152;8.590;2023-05-10T14:10:32;2.77;;;0.90;;
10303;SDS011;5197;48.152;8.590;2023-05-10T14:12:59;2.00;;;0.90;;
10303;SDS011;5197;48.152;8.590;2023-05-10T14:15:26;1.53;;;0.80;;
10303;SDS011;5197;48.152;8.590;2023-05-10T14:17:53;1.57;;;0.80;;
10303;SDS011;5197;48.152;8.590;2023-05-10T14:20:20;1.20;;;0.83;;
10303;SDS011;5197;48.152;8.590;2023-05-10T14:22:47;1.63;;;1.00;;
10303;SDS011;5197;48.152;8.590;2023-05-10T14:25:14;4.07;;;1.00;;
10303;SDS011;5197;48.152;8.590;2023-05-10T14:27:42;2.20;;;1.30;;
10303;SDS011;5197;48.152;8.590;2023-05-10T14:30:10;3.13;;;0.90;;
10303;SDS011;5197;48.152;8.590;2023-05-10T14:32:38;1.47;;;0.80;;
10303;SDS011;5197;48.152;8.590;2023-05-10T14:35:05;0.20;;;0.20;;
10303;SDS011;5197;48.152;8.590;2023-05-10T14:37:32;1.03;;;0.20;;
10303;SDS011;5197;48.152;8.590;2023-05-10T14:39:59;3.60;;;1.00;;
10303;SDS011;5197;48.152;8.590;2023-05-10T14:42:26;0.77;;;0.70;;
10303;SDS011;5197;48.152;8.590;2023-05-10T14:44:54;1.10;;;0.80;;
10303;SDS011;5197;48.152;8.590;2023-05-10T14:47:21;2.50;;;0.60;;
10303;SDS011;5197;48.152;8.590;2023-05-10T14:49:49;2.60;;;0.90;;
10303;SDS011;5197;48.152;8.590;2023-05-10T14:52:15;2.63;;;1.00;;
10303;SDS011;5197;48.152;8.590;2023-05-10T14:54:43;0.83;;;0.67;;
10303;SDS011;5197;48.152;8.590;2023-05-10T14:57:10;0.47;;;0.47;;
10303;SDS011;5197;48.152;8.590;2023-05-10T14:59:37;0.77;;;0.40;;
10303;SDS011;5197;48.152;8.590;2023-05-10T15:02:05;0.77;;;0.50;;
10303;SDS011;5197;48.152;8.590;2023-05-10T15:04:34;0.93;;;0.70;;
10303;SDS011;5197;48.152;8.590;2023-05-10T15:07:02;2.27;;;0.50;;
10303;SDS011;5197;48.152;8.590;2023-05-10T15:09:29;0.60;;;0.33;;
10303;SDS011;5197;48.152;8.590;2023-05-10T15:11:56;0.60;;;0.50;;
10303;SDS011;5197;48.152;8.590;2023-05-10T15:14:23;0.60;;;0.60;;
10303;SDS011;5197;48.152;8.590;2023-05-10T15:16:51;1.30;;;0.77;;
10303;SDS011;5197;48.152;8.590;2023-05-10T15:19:17;0.97;;;0.60;;